Time;durP1;ratioP1;P1;durP2;ratioP2;P2;SDS_P1;SDS_P2;PMS_P1;PMS_P2;Temp;Humidity;BMP_temperature;BMP_pressure;BME280_temperature;BME280_humidity;BME280_pressure;Samples;Min_cycle;Max_cycle;Signal;HPM_P1;HPM_P2
2022/08/20 00:00:21;;;;;;;21.13;18.92;;;19.20;99.90;;;;;;5032894;28;20125;-83
2022/08/20 00:02:50;;;;;;;20.95;18.75;;;19.10;99.90;;;;;;5006290;28;20056;-83
2022/08/20 00:05:24;;;;;;;22.05;17.77;;;19.10;99.90;;;;;;4989014;28;21522;-83
2022/08/20 00:07:51;;;;;;;19.45;17.52;;;19.10;99.90;;;;;;4990825;28;20497;-83
2022/08/20 00:10:18;;;;;;;20.20;18.23;;;19.10;99.90;;;;;;4969427;28;20052;-83
2022/08/20 00:12:49;;;;;;;20.80;17.80;;;19.10;99.90;;;;;;4972042;28;20048;-82
2022/08/20 00:15:20;;;;;;;19.65;17.58;;;19.10;99.90;;;;;;4982620;28;20041;-84
2022/08/20 00:17:51;;;;;;;21.38;17.05;;;19.00;99.90;;;;;;4983945;28;20052;-83
2022/08/20 00:20:20;;;;;;;21.75;17.08;;;19.00;99.90;;;;;;4972598;28;20135;-83
2022/08/20 00:22:47;;;;;;;17.80;15.93;;;19.00;99.90;;;;;;4986136;28;20485;-82
2022/08/20 00:25:14;;;;;;;18.63;16.38;;;19.00;99.90;;;;;;5000414;28;20446;-83
2022/08/20 00:27:41;;;;;;;19.02;16.80;;;19.00;99.90;;;;;;5001212;28;20053;-83
2022/08/20 00:30:10;;;;;;;23.27;16.50;;;18.90;99.90;;;;;;4969662;28;20053;-83
2022/08/20 00:32:50;;;;;;;21.50;15.95;;;18.90;99.90;;;;;;4984528;28;20041;-83
2022/08/20 00:35:17;;;;;;;20.98;16.88;;;18.90;99.90;;;;;;5001817;28;20064;-83
2022/08/20 00:37:44;;;;;;;19.65;17.10;;;18.90;99.90;;;;;;4985954;28;20040;-83
2022/08/20 00:40:15;;;;;;;19.98;17.90;;;18.90;99.90;;;;;;4969175;28;20045;-83
2022/08/20 00:42:51;;;;;;;17.70;15.68;;;18.90;99.90;;;;;;4985058;28;20095;-83
2022/08/20 00:45:19;;;;;;;18.33;15.40;;;18.90;99.90;;;;;;4986401;28;20051;-84
2022/08/20 00:47:45;;;;;;;18.45;15.90;;;18.90;99.90;;;;;;4992331;28;20057;-83
2022/08/20 00:50:14;;;;;;;22.52;16.60;;;18.90;99.90;;;;;;4966052;28;20432;-83
2022/08/20 00:52:43;;;;;;;22.67;16.58;;;18.90;99.90;;;;;;4986179;28;20064;-83
2022/08/20 00:55:15;;;;;;;18.80;15.98;;;18.90;99.90;;;;;;4987684;28;20037;-83
2022/08/20 00:57:53;;;;;;;19.05;16.00;;;18.80;99.90;;;;;;5002588;28;20041;-83
2022/08/20 01:00:28;;;;;;;18.05;16.15;;;18.80;99.90;;;;;;4972927;28;20505;-83
2022/08/20 01:02:56;;;;;;;19.27;15.23;;;18.80;99.90;;;;;;5016376;28;20053;-83
2022/08/20 01:05:23;;;;;;;17.83;14.63;;;18.80;99.90;;;;;;4982988;28;20417;-84
2022/08/20 01:07:52;;;;;;;19.40;15.45;;;18.80;99.90;;;;;;4986697;28;20082;-84
2022/08/20 01:10:40;;;;;;;19.02;15.38;;;18.70;99.90;;;;;;4997507;28;20044;-83
2022/08/20 01:13:09;;;;;;;20.08;15.88;;;18.70;99.90;;;;;;4982132;28;20488;-84
2022/08/20 01:15:39;;;;;;;17.35;15.52;;;18.70;99.90;;;;;;5002260;28;20044;-83
2022/08/20 01:18:10;;;;;;;18.98;15.70;;;18.60;99.90;;;;;;4983253;28;20048;-83
2022/08/20 01:20:38;;;;;;;19.27;14.98;;;18.60;99.90;;;;;;4966751;28;20049;-83
2022/08/20 01:23:52;;;;;;;23.50;15.75;;;18.50;99.90;;;;;;5002843;28;20410;-84
2022/08/20 01:26:25;;;;;;;19.23;15.13;;;18.50;99.90;;;;;;4964628;28;20136;-83
2022/08/20 01:29:23;;;;;;;19.80;15.93;;;18.40;99.90;;;;;;4999074;28;20045;-83
2022/08/20 01:31:50;;;;;;;18.65;16.40;;;18.50;99.90;;;;;;4950814;28;20052;-83
2022/08/20 01:34:19;;;;;;;19.50;15.25;;;18.40;99.90;;;;;;4971176;28;20049;-84
2022/08/20 01:36:52;;;;;;;22.70;15.77;;;18.40;99.90;;;;;;4986987;28;20595;-83
2022/08/20 01:39:25;;;;;;;21.33;15.93;;;18.40;99.90;;;;;;4964907;28;20566;-83
2022/08/20 01:41:57;;;;;;;19.25;15.50;;;18.40;99.90;;;;;;4979277;28;20227;-83
2022/08/20 01:44:23;;;;;;;19.50;16.00;;;18.40;99.90;;;;;;4996342;28;20060;-83
2022/08/20 01:46:52;;;;;;;20.17;15.82;;;18.40;99.90;;;;;;4987476;28;20045;-83
2022/08/20 01:49:28;;;;;;;20.38;15.27;;;18.40;99.90;;;;;;4980046;28;20458;-83
2022/08/20 01:51:58;;;;;;;22.17;15.13;;;18.40;99.90;;;;;;4962247;28;20045;-83
2022/08/20 01:54:24;;;;;;;19.75;15.98;;;18.40;99.90;;;;;;4979962;28;20116;-83
2022/08/20 01:57:04;;;;;;;18.38;15.60;;;18.40;99.90;;;;;;4971271;28;20041;-83
2022/08/20 01:59:31;;;;;;;23.73;16.92;;;18.40;99.90;;;;;;5013756;28;20049;-83
2022/08/20 02:01:58;;;;;;;21.17;15.43;;;18.40;99.90;;;;;;4988219;28;20049;-82
2022/08/20 02:04:25;;;;;;;17.85;15.90;;;18.30;99.90;;;;;;4986954;28;20072;-83
2022/08/20 02:06:56;;;;;;;23.60;16.38;;;18.30;99.90;;;;;;4984693;28;20139;-82
2022/08/20 02:09:24;;;;;;;18.45;16.13;;;18.30;99.90;;;;;;5018469;28;20716;-83
2022/08/20 02:11:52;;;;;;;25.27;15.93;;;18.20;99.90;;;;;;4990708;28;20036;-82
2022/08/20 02:14:19;;;;;;;18.02;14.68;;;18.20;99.90;;;;;;4986326;28;20495;-82
2022/08/20 02:16:45;;;;;;;19.17;14.90;;;18.10;99.90;;;;;;5002524;28;20045;-83
2022/08/20 02:19:19;;;;;;;19.65;14.88;;;18.10;99.90;;;;;;5019037;28;20473;-83
2022/08/20 02:21:50;;;;;;;18.38;15.25;;;18.00;99.90;;;;;;5025165;28;20052;-82
2022/08/20 02:24:18;;;;;;;18.30;15.13;;;18.00;99.90;;;;;;5041260;28;20481;-83
2022/08/20 02:26:47;;;;;;;20.63;15.88;;;18.00;99.90;;;;;;4996399;28;20098;-84
2022/08/20 02:29:17;;;;;;;18.70;15.50;;;18.00;99.90;;;;;;4999634;28;20055;-83
2022/08/20 02:31:46;;;;;;;20.90;14.75;;;18.00;99.90;;;;;;5022879;28;20056;-83
2022/08/20 02:34:13;;;;;;;20.15;15.25;;;18.00;99.90;;;;;;5027549;28;20136;-83
2022/08/20 02:36:44;;;;;;;18.38;15.52;;;17.90;99.90;;;;;;4993255;28;20467;-84
2022/08/20 02:39:12;;;;;;;21.73;16.20;;;18.00;99.90;;;;;;5025398;28;20124;-84
2022/08/20 02:41:39;;;;;;;18.33;14.20;;;18.00;99.90;;;;;;5019650;28;20051;-83
2022/08/20 02:44:06;;;;;;;21.75;14.55;;;17.90;99.90;;;;;;5043366;28;20504;-83
2022/08/20 02:46:34;;;;;;;17.50;14.50;;;17.90;99.90;;;;;;4992318;28;20076;-83
2022/08/20 02:49:00;;;;;;;20.77;15.00;;;17.90;99.90;;;;;;5011940;28;20037;-84
2022/08/20 02:51:26;;;;;;;20.75;16.48;;;17.80;99.90;;;;;;5002041;28;20393;-83
2022/08/20 02:53:53;;;;;;;19.73;14.77;;;17.80;99.90;;;;;;4986191;28;20060;-83
2022/08/20 02:56:19;;;;;;;19.73;15.50;;;17.80;99.90;;;;;;5008879;28;20049;-83
2022/08/20 02:58:45;;;;;;;18.70;14.75;;;17.80;99.90;;;;;;4995800;28;20720;-83
2022/08/20 03:01:15;;;;;;;22.40;15.88;;;17.80;99.90;;;;;;5003407;28;20072;-83
2022/08/20 03:03:41;;;;;;;17.88;15.10;;;17.70;99.90;;;;;;5025414;28;20131;-83
2022/08/20 03:06:10;;;;;;;20.58;15.35;;;17.70;99.90;;;;;;5012698;28;20172;-83
2022/08/20 03:08:37;;;;;;;16.83;14.88;;;17.70;99.90;;;;;;4970917;28;20056;-83
2022/08/20 03:11:05;;;;;;;22.02;15.45;;;17.70;99.90;;;;;;4983932;28;20049;-83
2022/08/20 03:13:31;;;;;;;21.08;15.35;;;17.70;99.90;;;;;;4985047;28;20119;-83
2022/08/20 03:16:00;;;;;;;20.85;15.63;;;17.60;99.90;;;;;;4989533;28;20060;-83
2022/08/20 03:18:31;;;;;;;21.15;16.13;;;17.60;99.90;;;;;;5002415;28;20041;-83
2022/08/20 03:20:58;;;;;;;23.08;16.77;;;17.60;99.90;;;;;;4983724;28;20512;-83
2022/08/20 03:23:24;;;;;;;19.65;16.17;;;17.50;99.90;;;;;;4983910;28;20077;-83
2022/08/20 03:25:50;;;;;;;21.25;16.55;;;17.50;99.90;;;;;;4985657;28;20079;-83
2022/08/20 03:28:16;;;;;;;20.23;16.35;;;17.50;99.90;;;;;;4967108;28;20131;-83
2022/08/20 03:30:43;;;;;;;20.70;16.70;;;17.50;99.90;;;;;;4985443;28;20137;-84
2022/08/20 03:33:09;;;;;;;21.63;15.25;;;17.50;99.90;;;;;;4966576;28;20040;-83
2022/08/20 03:35:36;;;;;;;19.73;15.85;;;17.40;99.90;;;;;;4970259;28;20041;-83
2022/08/20 03:38:07;;;;;;;20.90;16.60;;;17.40;99.90;;;;;;4963216;28;20168;-83
2022/08/20 03:40:36;;;;;;;24.00;16.33;;;17.40;99.90;;;;;;4971359;28;20107;-83
2022/08/20 03:43:03;;;;;;;23.95;16.75;;;17.40;99.90;;;;;;4987656;28;20115;-83
2022/08/20 03:45:31;;;;;;;20.17;17.30;;;17.40;99.90;;;;;;4993090;28;20049;-83
2022/08/20 03:48:00;;;;;;;20.42;15.30;;;17.30;99.90;;;;;;4963497;28;20064;-84
2022/08/20 03:50:30;;;;;;;23.02;16.73;;;17.30;99.90;;;;;;4981649;28;20552;-84
2022/08/20 03:52:58;;;;;;;20.88;16.45;;;17.30;99.90;;;;;;4982065;28;20548;-83
2022/08/20 03:55:25;;;;;;;23.40;16.80;;;17.30;99.90;;;;;;4970011;28;20041;-83
2022/08/20 03:57:54;;;;;;;22.65;16.30;;;17.30;99.90;;;;;;4972469;28;20047;-84
2022/08/20 04:00:28;;;;;;;22.90;15.93;;;17.20;99.90;;;;;;4973161;28;20478;-83
2022/08/20 04:02:55;;;;;;;21.35;16.33;;;17.20;99.90;;;;;;4976151;28;20049;-83
2022/08/20 04:05:26;;;;;;;19.50;16.88;;;17.20;99.90;;;;;;4969570;28;20158;-84
2022/08/20 04:07:53;;;;;;;21.42;15.98;;;17.20;99.90;;;;;;5006316;28;20048;-83
2022/08/20 04:10:19;;;;;;;20.48;16.35;;;17.20;99.90;;;;;;4992370;28;20056;-83
2022/08/20 04:12:45;;;;;;;18.83;16.23;;;17.10;99.90;;;;;;4991713;28;20086;-83
2022/08/20 04:15:14;;;;;;;24.13;16.33;;;17.10;99.90;;;;;;5017970;28;20045;-83
2022/08/20 04:17:43;;;;;;;20.73;15.65;;;17.10;99.90;;;;;;5009033;28;20489;-83
2022/08/20 04:20:13;;;;;;;22.80;18.02;;;17.10;99.90;;;;;;5020978;28;20570;-83
2022/08/20 04:22:41;;;;;;;24.30;17.42;;;17.10;99.90;;;;;;5002523;28;20120;-84
2022/08/20 04:25:07;;;;;;;22.40;16.27;;;17.10;99.90;;;;;;4997540;28;20048;-83
2022/08/20 04:27:36;;;;;;;18.65;14.63;;;17.10;99.90;;;;;;4962628;28;20131;-84
2022/08/20 04:30:04;;;;;;;22.30;15.57;;;17.10;99.90;;;;;;5004357;28;20044;-83
2022/08/20 04:32:30;;;;;;;20.52;14.60;;;17.10;99.90;;;;;;4993005;28;20032;-83
2022/08/20 04:34:57;;;;;;;27.55;16.27;;;17.10;99.90;;;;;;4987243;28;20141;-83
2022/08/20 04:37:23;;;;;;;21.58;15.88;;;17.10;99.90;;;;;;5013530;28;20055;-83
2022/08/20 04:42:37;;;;;;;22.23;15.20;;;17.10;99.90;;;;;;5009000;28;20037;-83
2022/08/20 04:45:05;;;;;;;17.25;13.82;;;17.10;99.90;;;;;;4990887;28;20564;-82
2022/08/20 04:47:32;;;;;;;16.20;14.45;;;17.10;99.90;;;;;;5005173;28;20471;-83
2022/08/20 04:50:01;;;;;;;20.20;14.32;;;17.10;99.90;;;;;;5025542;28;20056;-84
2022/08/20 04:52:31;;;;;;;16.73;13.73;;;17.10;99.90;;;;;;5037357;28;20786;-83
2022/08/20 04:54:57;;;;;;;19.27;13.43;;;17.10;99.90;;;;;;4985586;28;20496;-83
2022/08/20 04:57:25;;;;;;;17.95;12.90;;;17.10;99.90;;;;;;4990509;28;20587;-83
2022/08/20 04:59:52;;;;;;;15.85;12.27;;;17.00;99.90;;;;;;5026644;28;20563;-83
2022/08/20 05:02:19;;;;;;;16.92;13.15;;;17.00;99.90;;;;;;4986717;28;20041;-83
2022/08/20 05:04:48;;;;;;;15.50;13.32;;;17.00;99.90;;;;;;5007129;28;20617;-82
2022/08/20 05:07:20;;;;;;;20.80;13.20;;;17.00;99.90;;;;;;4980728;28;20056;-83
2022/08/20 05:09:46;;;;;;;13.63;12.13;;;17.00;99.90;;;;;;4991812;28;20110;-83
2022/08/20 05:12:16;;;;;;;16.38;13.35;;;17.00;99.90;;;;;;4962622;28;20507;-83
2022/08/20 05:14:42;;;;;;;17.52;12.10;;;16.90;99.90;;;;;;5012373;28;20047;-83
2022/08/20 05:17:09;;;;;;;16.17;12.52;;;16.90;99.90;;;;;;5010426;28;20102;-84
2022/08/20 05:19:36;;;;;;;15.40;12.73;;;16.90;99.90;;;;;;4996343;28;20105;-83
2022/08/20 05:22:04;;;;;;;18.83;12.32;;;16.90;99.90;;;;;;5003100;28;20056;-84
2022/08/20 05:24:30;;;;;;;20.20;12.38;;;16.90;99.90;;;;;;5006734;28;20161;-83
2022/08/20 05:26:57;;;;;;;14.90;11.88;;;16.80;99.90;;;;;;5005798;28;20079;-83
2022/08/20 05:29:24;;;;;;;16.63;12.07;;;16.80;99.90;;;;;;5023954;28;20277;-83
2022/08/20 05:31:50;;;;;;;14.07;11.23;;;16.80;99.90;;;;;;4995206;28;20036;-84
2022/08/20 05:34:16;;;;;;;16.63;12.55;;;16.90;99.90;;;;;;4987831;28;20128;-83
2022/08/20 05:36:45;;;;;;;19.50;12.95;;;16.90;99.90;;;;;;4983677;28;20083;-83
2022/08/20 05:39:12;;;;;;;17.38;13.07;;;16.90;99.90;;;;;;5016909;28;20072;-83
2022/08/20 05:41:39;;;;;;;19.02;12.90;;;16.90;99.90;;;;;;4996836;28;20676;-83
2022/08/20 05:44:09;;;;;;;18.30;12.18;;;16.90;99.90;;;;;;4991624;28;20136;-85
2022/08/20 05:46:39;;;;;;;16.83;11.93;;;17.00;99.90;;;;;;4990972;28;20400;-83
2022/08/20 05:49:08;;;;;;;17.48;10.70;;;17.10;99.90;;;;;;4994747;28;20059;-84
2022/08/20 05:51:35;;;;;;;16.33;10.30;;;17.10;99.90;;;;;;5021556;28;20044;-85
2022/08/20 05:54:02;;;;;;;10.80;9.13;;;17.20;99.90;;;;;;4990832;28;20492;-84
2022/08/20 05:56:29;;;;;;;15.73;9.25;;;17.30;99.90;;;;;;5005566;28;20037;-84
2022/08/20 05:58:56;;;;;;;12.02;9.50;;;17.40;99.90;;;;;;4977370;28;20482;-84
2022/08/20 06:01:22;;;;;;;12.77;8.85;;;17.30;99.90;;;;;;4964050;28;20147;-83
2022/08/20 06:06:33;;;;;;;14.60;8.95;;;17.40;99.90;;;;;;4999791;28;20056;-84
2022/08/20 06:08:59;;;;;;;16.15;9.45;;;17.40;99.90;;;;;;4988953;28;20614;-84
2022/08/20 06:11:26;;;;;;;10.18;7.65;;;17.50;99.90;;;;;;4992945;28;20451;-84
2022/08/20 06:13:52;;;;;;;14.13;8.15;;;17.60;99.90;;;;;;4975277;28;22306;-85
2022/08/20 06:16:19;;;;;;;14.60;9.27;;;17.70;99.90;;;;;;4970236;28;20928;-85
2022/08/20 06:18:45;;;;;;;11.27;8.63;;;17.80;99.90;;;;;;4959439;28;20507;-84
2022/08/20 06:21:12;;;;;;;9.88;7.03;;;18.00;99.90;;;;;;4976654;28;20055;-84
2022/08/20 06:23:38;;;;;;;10.25;7.90;;;18.10;99.90;;;;;;4974920;28;20459;-84
2022/08/20 06:26:07;;;;;;;12.38;7.40;;;18.30;99.90;;;;;;4981431;28;20102;-85
2022/08/20 06:28:35;;;;;;;11.70;6.45;;;18.60;99.90;;;;;;4974107;28;20501;-84
2022/08/20 06:31:01;;;;;;;17.70;9.70;;;18.80;99.90;;;;;;4991361;28;20500;-84
2022/08/20 06:33:28;;;;;;;11.73;5.75;;;18.80;99.90;;;;;;4959378;28;20403;-84
2022/08/20 06:35:54;;;;;;;8.50;5.18;;;18.70;99.90;;;;;;4992300;28;20492;-84
2022/08/20 06:38:21;;;;;;;11.20;4.95;;;18.70;99.90;;;;;;4969575;28;20083;-84
2022/08/20 06:40:47;;;;;;;13.30;5.47;;;18.60;99.90;;;;;;4988127;28;20497;-84
2022/08/20 06:43:13;;;;;;;9.13;5.47;;;18.60;99.90;;;;;;4971075;28;20049;-84
2022/08/20 06:45:40;;;;;;;13.07;6.03;;;18.60;99.90;;;;;;4973221;28;20048;-84
2022/08/20 06:48:17;;;;;;;19.17;14.77;;;18.70;99.90;;;;;;4980298;28;20127;-85
2022/08/20 06:51:40;;;;;;;12.13;6.40;;;18.70;99.90;;;;;;5004186;28;20331;-84
2022/08/20 06:54:07;;;;;;;10.55;5.28;;;19.00;99.90;;;;;;4974496;28;20130;-83
2022/08/20 06:56:33;;;;;;;11.27;4.60;;;19.40;99.90;;;;;;4960806;28;20476;-84
2022/08/20 06:58:59;;;;;;;11.00;4.53;;;19.70;99.90;;;;;;4975803;28;20045;-84
2022/08/20 07:01:25;;;;;;;15.95;4.75;;;20.00;99.90;;;;;;4961462;28;20049;-84
2022/08/20 07:03:51;;;;;;;10.95;5.28;;;20.30;99.90;;;;;;4989817;28;20055;-84
2022/08/20 07:06:18;;;;;;;9.45;3.45;;;20.40;99.90;;;;;;4978668;28;20067;-84
2022/08/20 07:08:44;;;;;;;10.75;3.72;;;20.60;99.90;;;;;;4998774;28;20232;-84
2022/08/20 07:11:11;;;;;;;8.73;3.22;;;20.90;99.90;;;;;;5029729;28;20598;-85
2022/08/20 07:13:39;;;;;;;11.13;3.00;;;21.20;99.90;;;;;;5003483;28;20119;-85
2022/08/20 07:16:07;;;;;;;92.25;83.40;;;21.40;99.90;;;;;;4993921;28;20128;-86
2022/08/20 07:18:33;;;;;;;9.15;2.92;;;21.50;99.90;;;;;;5020068;28;20587;-85
2022/08/20 07:20:59;;;;;;;10.68;6.40;;;21.60;99.90;;;;;;4991356;28;20055;-85
2022/08/20 07:23:26;;;;;;;10.93;3.95;;;21.60;99.90;;;;;;4978514;28;20048;-86
2022/08/20 07:25:54;;;;;;;7.93;2.20;;;21.80;99.90;;;;;;4978539;28;20047;-85
2022/08/20 07:28:23;;;;;;;8.38;3.13;;;22.10;99.90;;;;;;5008794;28;20489;-86
2022/08/20 07:33:38;;;;;;;8.25;2.58;;;22.90;99.90;;;;;;5028059;28;20044;-85
2022/08/20 07:36:06;;;;;;;12.43;5.07;;;23.00;99.90;;;;;;4999800;28;20222;-86
2022/08/20 07:38:33;;;;;;;11.20;2.70;;;22.80;99.90;;;;;;4997975;28;20482;-86
2022/08/20 07:41:13;;;;;;;6.63;2.30;;;22.90;99.90;;;;;;5030783;28;20078;-86
2022/08/20 07:43:41;;;;;;;6.55;1.70;;;23.20;99.90;;;;;;4994837;28;20083;-86
2022/08/20 07:46:08;;;;;;;9.52;5.45;;;23.50;99.90;;;;;;4993834;28;20800;-86
2022/08/20 07:48:38;;;;;;;5.03;1.48;;;23.90;99.90;;;;;;4991906;28;20079;-86
2022/08/20 07:51:06;;;;;;;10.85;4.20;;;24.00;99.90;;;;;;4995368;28;20484;-86
2022/08/20 07:53:34;;;;;;;9.02;3.67;;;24.30;99.90;;;;;;4998968;28;20161;-86
2022/08/20 07:56:04;;;;;;;8.70;3.08;;;24.60;99.90;;;;;;4994091;28;20413;-87
2022/08/20 07:58:31;;;;;;;5.80;1.58;;;24.60;99.90;;;;;;5001596;28;20530;-87
2022/08/20 08:00:57;;;;;;;9.30;1.50;;;24.70;99.90;;;;;;5021004;28;20751;-87
2022/08/20 08:03:25;;;;;;;6.07;1.73;;;24.60;99.90;;;;;;4993619;28;20492;-87
2022/08/20 08:05:51;;;;;;;13.80;11.88;;;24.80;99.90;;;;;;4987190;28;20455;-86
2022/08/20 08:08:24;;;;;;;10.38;5.93;;;25.10;99.90;;;;;;5010460;28;20041;-86
2022/08/20 08:10:56;;;;;;;19.63;17.73;;;25.40;99.90;;;;;;4992869;28;20105;-86
2022/08/20 08:13:34;;;;;;;6.55;1.50;;;25.50;99.90;;;;;;5031416;28;20052;-86
2022/08/20 08:16:04;;;;;;;3.65;0.90;;;25.40;99.90;;;;;;5010634;28;20045;-86
2022/08/20 08:18:55;;;;;;;6.78;2.03;;;25.50;99.90;;;;;;5016753;28;20131;-87
2022/08/20 08:21:22;;;;;;;13.65;12.38;;;25.40;99.80;;;;;;5031904;28;20048;-87
2022/08/20 08:23:49;;;;;;;6.55;2.47;;;25.50;99.90;;;;;;5012408;28;20340;-87
2022/08/20 08:26:17;;;;;;;6.78;1.52;;;25.90;99.90;;;;;;5002411;28;20048;-86
2022/08/20 08:28:46;;;;;;;9.02;4.15;;;25.80;99.90;;;;;;5015360;28;20048;-87
2022/08/20 08:31:13;;;;;;;17.35;15.15;;;26.20;99.90;;;;;;4981521;28;20044;-87
2022/08/20 08:33:48;;;;;;;10.23;3.28;;;26.40;99.90;;;;;;5026312;28;20078;-85
2022/08/20 08:36:15;;;;;;;6.22;1.30;;;26.50;96.70;;;;;;5024763;28;20464;-85
2022/08/20 08:38:46;;;;;;;7.72;1.75;;;26.60;99.90;;;;;;4999333;28;20040;-86
2022/08/20 08:41:17;;;;;;;6.20;1.42;;;26.90;97.30;;;;;;5025554;28;20527;-86
2022/08/20 08:43:54;;;;;;;;;;;26.90;99.90;;;;;;4997343;28;20045;-86
2022/08/20 08:46:26;;;;;;;7.18;2.38;;;26.90;93.40;;;;;;5000193;28;19920;-86
2022/08/20 08:48:56;;;;;;;4.95;1.35;;;27.30;96.20;;;;;;4991850;28;20682;-87
2022/08/20 08:51:58;;;;;;;9.48;4.45;;;27.30;92.90;;;;;;5011177;28;20048;-86
2022/08/20 08:54:30;;;;;;;5.68;1.38;;;27.40;82.60;;;;;;4989425;28;20060;-87
2022/08/20 08:56:58;;;;;;;4.30;1.15;;;27.50;80.60;;;;;;4998143;28;20515;-87
2022/08/20 08:59:27;;;;;;;4.60;1.02;;;27.50;90.30;;;;;;4996613;28;20524;-86
2022/08/20 09:01:57;;;;;;;6.88;1.60;;;27.70;81.30;;;;;;5008693;28;20049;-84
2022/08/20 09:04:30;;;;;;;4.57;1.23;;;27.70;83.20;;;;;;4992748;28;20041;-85
2022/08/20 09:06:58;;;;;;;44.20;21.38;;;27.90;80.70;;;;;;4992430;28;20060;-85
2022/08/20 09:09:27;;;;;;;43.05;13.65;;;28.10;81.60;;;;;;5000407;28;20111;-85
2022/08/20 09:12:01;;;;;;;13.77;5.43;;;27.90;77.30;;;;;;5026109;28;20124;-84
2022/08/20 09:14:28;;;;;;;10.20;3.45;;;28.00;83.80;;;;;;5025773;28;20040;-84
2022/08/20 09:16:54;;;;;;;8.65;3.95;;;28.00;78.10;;;;;;4991141;28;20041;-84
2022/08/20 09:19:20;;;;;;;24.98;6.55;;;28.00;76.60;;;;;;5008494;28;20053;-85
2022/08/20 09:21:47;;;;;;;15.52;4.65;;;28.10;76.00;;;;;;5005873;28;20128;-86
2022/08/20 09:24:13;;;;;;;12.95;2.20;;;28.20;76.10;;;;;;5005703;28;20048;-83
2022/08/20 09:26:40;;;;;;;6.07;2.03;;;28.30;71.90;;;;;;5005021;28;20514;-83
2022/08/20 09:29:06;;;;;;;5.30;1.10;;;28.30;72.90;;;;;;5020408;28;20126;-83
2022/08/20 09:31:32;;;;;;;13.80;1.75;;;28.10;64.80;;;;;;4989321;28;20476;-83
2022/08/20 09:33:59;;;;;;;7.85;1.70;;;28.30;65.90;;;;;;5012097;28;20519;-84
2022/08/20 09:36:25;;;;;;;6.78;2.75;;;28.30;63.90;;;;;;5008349;28;20040;-83
2022/08/20 09:38:51;;;;;;;5.18;1.10;;;28.00;64.40;;;;;;5025008;28;20523;-84
2022/08/20 09:41:17;;;;;;;30.83;7.72;;;28.00;60.90;;;;;;4979022;28;20037;-83
2022/08/20 09:43:43;;;;;;;23.95;4.25;;;28.10;60.10;;;;;;4991458;28;20041;-83
2022/08/20 09:46:13;;;;;;;5.60;1.60;;;28.20;60.40;;;;;;5011979;28;20453;-83
2022/08/20 09:48:39;;;;;;;38.80;5.57;;;28.20;59.00;;;;;;4976846;28;20136;-83
2022/08/20 09:51:05;;;;;;;33.95;4.22;;;28.50;58.70;;;;;;5014052;28;20056;-83
2022/08/20 09:53:31;;;;;;;9.30;2.00;;;28.70;56.30;;;;;;4996803;28;20068;-83
2022/08/20 09:55:59;;;;;;;7.30;2.05;;;28.30;57.50;;;;;;4994391;28;20126;-83
2022/08/20 09:58:43;;;;;;;7.88;2.05;;;28.60;59.10;;;;;;4967081;28;20040;-82
2022/08/20 10:01:16;;;;;;;4.45;1.83;;;28.90;55.50;;;;;;5014202;28;20132;-83
2022/08/20 10:03:46;;;;;;;8.00;4.18;;;28.80;57.60;;;;;;5002630;28;20773;-82
2022/08/20 10:06:13;;;;;;;9.30;3.85;;;28.70;57.40;;;;;;4980346;28;20058;-83
2022/08/20 10:08:42;;;;;;;7.15;2.10;;;28.80;57.60;;;;;;4989870;28;20446;-82
2022/08/20 10:11:09;;;;;;;5.10;1.20;;;28.90;57.00;;;;;;4981893;28;20098;-82
2022/08/20 10:13:35;;;;;;;4.82;1.17;;;29.00;56.30;;;;;;5003359;28;20691;-82
2022/08/20 10:16:01;;;;;;;4.45;1.20;;;29.30;56.00;;;;;;5011963;28;20044;-83
2022/08/20 10:18:27;;;;;;;3.90;1.30;;;29.80;55.20;;;;;;4992265;28;20094;-83
2022/08/20 10:20:54;;;;;;;6.05;1.20;;;29.20;53.80;;;;;;4997109;28;20119;-83
2022/08/20 10:23:20;;;;;;;6.38;1.33;;;28.50;54.50;;;;;;5010792;28;20055;-83
2022/08/20 10:25:46;;;;;;;3.90;1.15;;;28.60;56.20;;;;;;4974850;28;20591;-83
2022/08/20 10:28:12;;;;;;;4.57;1.10;;;28.40;56.30;;;;;;4982014;28;20076;-83
2022/08/20 10:30:38;;;;;;;4.55;1.13;;;29.10;57.10;;;;;;5004572;28;20049;-83
2022/08/20 10:33:05;;;;;;;5.40;1.25;;;29.50;57.20;;;;;;5021092;28;20049;-83
2022/08/20 10:35:31;;;;;;;4.85;1.38;;;29.40;54.80;;;;;;4990933;28;20045;-83
2022/08/20 10:37:57;;;;;;;5.38;1.40;;;28.80;54.70;;;;;;4975361;28;20541;-83
2022/08/20 10:40:23;;;;;;;5.68;1.23;;;28.80;54.90;;;;;;4988015;28;20446;-83
2022/08/20 10:42:50;;;;;;;7.32;1.30;;;29.30;52.40;;;;;;4974083;28;20041;-83
2022/08/20 10:45:17;;;;;;;5.97;1.40;;;29.50;53.10;;;;;;5022358;28;20045;-83
2022/08/20 10:47:43;;;;;;;5.18;1.73;;;29.60;53.30;;;;;;4990629;28;20053;-83
2022/08/20 10:50:15;;;;;;;19.95;17.75;;;29.50;52.60;;;;;;5020661;28;20492;-83
2022/08/20 10:52:41;;;;;;;5.30;1.42;;;28.80;52.70;;;;;;5006320;28;20136;-83
2022/08/20 10:55:07;;;;;;;4.15;1.95;;;29.20;52.50;;;;;;5007471;28;20389;-83
2022/08/20 10:57:33;;;;;;;7.63;2.75;;;29.60;52.30;;;;;;4980454;28;20037;-83
2022/08/20 11:00:00;;;;;;;6.90;2.58;;;29.80;52.40;;;;;;4994639;28;20557;-84
2022/08/20 11:02:27;;;;;;;6.38;1.33;;;29.60;52.90;;;;;;5008274;28;20099;-86
2022/08/20 11:04:54;;;;;;;4.13;1.10;;;29.90;52.60;;;;;;5004024;28;20090;-84
2022/08/20 11:07:26;;;;;;;6.28;1.05;;;30.30;51.80;;;;;;5011300;28;20110;-84
2022/08/20 11:09:52;;;;;;;5.50;1.15;;;30.40;53.10;;;;;;5029867;28;20527;-84
2022/08/20 11:12:19;;;;;;;5.00;1.20;;;30.70;50.80;;;;;;5012459;28;20159;-83
2022/08/20 11:14:46;;;;;;;4.53;1.40;;;30.70;49.10;;;;;;4992536;28;20118;-83
2022/08/20 11:17:22;;;;;;;4.65;1.23;;;31.30;49.40;;;;;;5006587;28;20037;-84
2022/08/20 11:19:48;;;;;;;5.40;1.67;;;31.40;47.50;;;;;;5001950;28;20052;-84
2022/08/20 11:22:15;;;;;;;5.30;1.38;;;30.90;46.90;;;;;;5010749;28;20515;-84
2022/08/20 11:24:41;;;;;;;5.00;1.20;;;30.60;46.50;;;;;;4978834;28;20033;-84
2022/08/20 11:27:08;;;;;;;5.40;1.30;;;30.40;46.10;;;;;;5001786;28;20037;-84
2022/08/20 11:29:36;;;;;;;5.63;1.95;;;30.70;47.90;;;;;;4965365;28;20492;-84
2022/08/20 11:32:04;;;;;;;7.15;1.52;;;30.90;47.30;;;;;;4981117;28;20041;-83
2022/08/20 11:34:30;;;;;;;3.30;1.10;;;31.00;46.70;;;;;;5009422;28;20048;-84
2022/08/20 11:36:57;;;;;;;6.93;1.50;;;31.20;47.20;;;;;;4942147;28;20036;-84
2022/08/20 11:39:25;;;;;;;8.13;3.88;;;31.20;46.40;;;;;;4974665;28;20459;-84
2022/08/20 11:41:51;;;;;;;4.00;1.23;;;31.40;45.90;;;;;;5021388;28;20509;-84
2022/08/20 11:44:17;;;;;;;15.20;12.93;;;31.20;46.60;;;;;;4992467;28;20542;-84
2022/08/20 11:46:43;;;;;;;8.50;6.38;;;31.50;46.40;;;;;;5023299;28;20049;-84
2022/08/20 11:49:09;;;;;;;23.67;21.30;;;31.30;45.90;;;;;;4989036;28;20057;-84
2022/08/20 11:51:36;;;;;;;5.78;2.38;;;31.20;46.20;;;;;;5006286;28;20056;-84
2022/08/20 11:54:04;;;;;;;5.55;1.08;;;30.60;45.70;;;;;;4970929;28;20111;-85
2022/08/20 11:56:30;;;;;;;5.63;1.50;;;31.30;47.50;;;;;;4995723;28;20041;-85
2022/08/20 11:58:57;;;;;;;4.68;1.55;;;31.80;47.80;;;;;;4994536;28;20047;-84
2022/08/20 12:01:23;;;;;;;3.85;1.10;;;31.80;47.10;;;;;;4996942;28;20091;-85
2022/08/20 12:03:49;;;;;;;15.52;13.90;;;31.50;45.60;;;;;;4977583;28;20045;-84
2022/08/20 12:06:16;;;;;;;6.80;1.60;;;30.90;46.40;;;;;;4970905;28;20104;-84
2022/08/20 12:08:42;;;;;;;5.95;1.55;;;30.60;46.00;;;;;;5005310;28;20053;-85
2022/08/20 12:11:08;;;;;;;5.18;1.67;;;30.40;44.70;;;;;;5007266;28;20045;-85
2022/08/20 12:13:36;;;;;;;5.18;1.38;;;29.80;45.50;;;;;;4992189;28;20310;-85
2022/08/20 12:16:03;;;;;;;5.97;2.65;;;29.30;46.00;;;;;;4994836;28;20040;-85
2022/08/20 12:18:30;;;;;;;4.82;1.30;;;29.50;46.50;;;;;;4994042;28;20033;-85
2022/08/20 12:20:57;;;;;;;4.88;1.55;;;29.90;47.00;;;;;;4990750;28;20092;-85
2022/08/20 12:23:29;;;;;;;11.05;8.77;;;30.40;46.00;;;;;;5008953;28;20049;-84
2022/08/20 12:25:55;;;;;;;51.55;47.15;;;29.80;46.10;;;;;;4989696;28;20044;-85
2022/08/20 12:28:22;;;;;;;6.75;3.05;;;29.40;46.60;;;;;;4977179;28;20544;-84
2022/08/20 12:30:48;;;;;;;6.68;3.30;;;28.70;46.80;;;;;;4974408;28;20122;-84
2022/08/20 12:33:15;;;;;;;7.35;1.40;;;28.40;46.90;;;;;;4975577;28;20041;-84
2022/08/20 12:35:41;;;;;;;6.35;1.52;;;29.00;48.80;;;;;;4974040;28;20042;-84
2022/08/20 12:38:07;;;;;;;4.70;1.60;;;29.50;47.80;;;;;;4975751;28;20124;-85
2022/08/20 12:40:33;;;;;;;4.97;2.13;;;29.70;47.70;;;;;;4963895;28;20053;-85
2022/08/20 12:43:01;;;;;;;8.30;1.60;;;29.40;47.10;;;;;;4987070;28;20568;-84
2022/08/20 12:45:29;;;;;;;6.60;1.73;;;29.40;47.70;;;;;;5008389;28;20084;-86
2022/08/20 12:48:01;;;;;;;7.88;1.80;;;29.30;47.30;;;;;;5003546;28;20195;-85
2022/08/20 12:50:27;;;;;;;6.25;1.60;;;28.80;48.80;;;;;;5009861;28;20049;-85